createdAt,value
2022-08-02T00:00:59.240Z,1007.1
2022-08-02T00:01:59.250Z,1007.11
2022-08-02T00:02:59.225Z,1007.11
2022-08-02T00:03:59.210Z,1007.14
2022-08-02T00:04:59.205Z,1007.14
2022-08-02T00:05:59.192Z,1007.11
2022-08-02T00:06:59.187Z,1007.17
2022-08-02T00:07:59.178Z,1007.2
2022-08-02T00:08:59.159Z,1007.18
2022-08-02T00:09:59.143Z,1007.21
2022-08-02T00:10:59.139Z,1007.19
2022-08-02T00:11:59.124Z,1007.22
2022-08-02T00:12:59.114Z,1007.21
2022-08-02T00:13:59.127Z,1007.22
2022-08-02T00:14:59.098Z,1007.29
2022-08-02T00:15:59.079Z,1007.25
2022-08-02T00:16:59.075Z,1007.26
2022-08-02T00:17:59.066Z,1007.25
2022-08-02T00:18:59.047Z,1007.26
2022-08-02T00:19:59.040Z,1007.27
2022-08-02T00:20:59.027Z,1007.27
2022-08-02T00:21:59.021Z,1007.26
2022-08-02T00:22:59.009Z,1007.21
2022-08-02T00:23:59.015Z,1007.28
2022-08-02T00:24:58.991Z,1007.19
2022-08-02T00:25:58.973Z,1007.18
2022-08-02T00:26:58.963Z,1007.21
2022-08-02T00:27:58.957Z,1007.14
2022-08-02T00:28:58.947Z,1007.26
2022-08-02T00:29:58.929Z,1007.31
2022-08-02T00:30:58.930Z,1007.24
2022-08-02T00:31:58.916Z,1007.24
2022-08-02T00:32:58.902Z,1007.2
2022-08-02T00:33:58.889Z,1007.18
2022-08-02T00:34:58.894Z,1007.19
2022-08-02T00:35:58.867Z,1007.14
2022-08-02T00:36:58.859Z,1007.14
2022-08-02T00:37:58.846Z,1007.1
2022-08-02T00:38:58.839Z,1007.09
2022-08-02T00:39:58.826Z,1007.08
2022-08-02T00:40:58.827Z,1007.09
2022-08-02T00:41:58.810Z,1007.04
2022-08-02T00:42:58.797Z,1007.06
2022-08-02T00:43:58.786Z,1007.09
2022-08-02T00:44:58.768Z,1007.16
2022-08-02T00:45:58.764Z,1007.12
2022-08-02T00:46:58.772Z,1007.1
2022-08-02T00:47:58.736Z,1007.06
2022-08-02T00:48:58.729Z,1007.08
2022-08-02T00:49:58.722Z,1007.05
2022-08-02T00:50:58.709Z,1007.07
2022-08-02T00:51:58.698Z,1007.06
2022-08-02T00:52:58.680Z,1007.17
2022-08-02T00:53:58.670Z,1007.15
2022-08-02T00:54:58.666Z,1007.17
2022-08-02T00:55:58.655Z,1007.22
2022-08-02T00:56:58.657Z,1007.18
2022-08-02T00:57:58.635Z,1007.14
2022-08-02T00:58:58.620Z,1007.19
2022-08-02T00:59:58.616Z,1007.14
2022-08-02T01:00:58.599Z,1007.14
2022-08-02T01:01:58.590Z,1007.15
2022-08-02T01:02:58.578Z,1007.19
2022-08-02T01:03:58.579Z,1007.2
2022-08-02T01:04:58.559Z,1007.13
2022-08-02T01:05:58.554Z,1007.15
2022-08-02T01:06:58.537Z,1007.1
2022-08-02T01:07:58.529Z,1007.17
2022-08-02T01:08:58.522Z,1007.15
2022-08-02T01:09:58.506Z,1007.23
2022-08-02T01:10:58.505Z,1007.26
2022-08-02T01:11:58.486Z,1007.27
2022-08-02T01:12:58.472Z,1007.36
2022-08-02T01:13:58.465Z,1007.28
2022-08-02T01:14:58.452Z,1007.31
2022-08-02T01:15:58.482Z,1007.25
2022-08-02T01:16:58.427Z,1007.3
2022-08-02T01:17:58.424Z,1007.28
2022-08-02T01:18:58.407Z,1007.23
2022-08-02T01:19:58.393Z,1007.21
2022-08-02T01:20:58.404Z,1007.23
2022-08-02T01:21:58.376Z,1007.27
2022-08-02T01:22:58.368Z,1007.23
2022-08-02T01:23:58.371Z,1007.24
2022-08-02T01:24:58.358Z,1007.23
2022-08-02T01:25:58.333Z,1007.23
2022-08-02T01:26:58.341Z,1007.21
2022-08-02T01:27:58.316Z,1007.17
2022-08-02T01:28:58.317Z,1007.23
2022-08-02T01:29:58.293Z,1007.16
2022-08-02T01:30:58.285Z,1007.18
2022-08-02T01:31:58.286Z,1007.23
2022-08-02T01:32:58.255Z,1007.17
2022-08-02T01:33:58.249Z,1007.22
2022-08-02T01:34:58.252Z,1007.21
2022-08-02T01:35:58.227Z,1007.2
2022-08-02T01:36:58.217Z,1007.14
2022-08-02T01:37:58.224Z,1007.17
2022-08-02T01:38:58.205Z,1007.18
2022-08-02T01:39:58.181Z,1007.18
2022-08-02T01:40:58.180Z,1007.16
2022-08-02T01:41:58.164Z,1007.16
2022-08-02T01:42:58.152Z,1007.17
2022-08-02T01:43:58.153Z,1007.13
2022-08-02T01:44:58.151Z,1007.16
2022-08-02T01:45:58.129Z,1007.19
2022-08-02T01:46:58.110Z,1007.2
2022-08-02T01:47:58.110Z,1007.21
2022-08-02T01:48:58.094Z,1007.15
2022-08-02T01:49:58.078Z,1007.17
2022-08-02T01:50:58.066Z,1007.21
2022-08-02T01:51:58.056Z,1007.22
2022-08-02T01:52:58.050Z,1007.21
2022-08-02T01:53:58.050Z,1007.19
2022-08-02T01:54:58.122Z,1007.18
2022-08-02T01:55:58.019Z,1007.21
2022-08-02T01:56:58.002Z,1007.23
2022-08-02T01:57:57.994Z,1007.23
2022-08-02T01:58:57.982Z,1007.2
2022-08-02T01:59:57.982Z,1007.22
2022-08-02T02:00:57.957Z,1007.19
2022-08-02T02:01:57.952Z,1007.23
2022-08-02T02:02:57.949Z,1007.2
2022-08-02T02:03:57.931Z,1007.19
2022-08-02T02:04:57.973Z,1007.21
2022-08-02T02:05:57.901Z,1007.19
2022-08-02T02:06:57.892Z,1007.22
2022-08-02T02:07:57.898Z,1007.1
2022-08-02T02:08:57.875Z,1007.17
2022-08-02T02:09:57.855Z,1007.17
2022-08-02T02:10:57.852Z,1007.14
2022-08-02T02:11:57.836Z,1007.15
2022-08-02T02:12:57.832Z,1007.13
2022-08-02T02:13:57.820Z,1007.1
2022-08-02T02:14:57.803Z,1007.13
2022-08-02T02:15:57.792Z,1007.09
2022-08-02T02:16:57.789Z,1007.11
2022-08-02T02:17:57.807Z,1007.06
2022-08-02T02:18:57.768Z,1007.13
2022-08-02T02:19:57.758Z,1007.08
2022-08-02T02:20:57.745Z,1007.05
2022-08-02T02:21:57.728Z,1007.1
2022-08-02T02:22:57.720Z,1007.16
2022-08-02T02:23:57.710Z,1007.11
2022-08-02T02:24:57.706Z,1007.13
2022-08-02T02:25:57.685Z,1007.05
2022-08-02T02:26:57.678Z,1007.05
2022-08-02T02:27:57.741Z,1007.04
2022-08-02T02:28:57.672Z,1006.99
2022-08-02T02:29:57.641Z,1006.97
2022-08-02T02:30:57.641Z,1006.95
2022-08-02T02:31:57.620Z,1006.92
2022-08-02T02:32:57.608Z,1006.94
2022-08-02T02:33:57.594Z,1006.98
2022-08-02T02:34:57.592Z,1006.92
2022-08-02T02:35:57.574Z,1006.9
2022-08-02T02:36:57.566Z,1006.85
2022-08-02T02:37:57.592Z,1006.76
2022-08-02T02:38:57.540Z,1006.83
2022-08-02T02:39:57.532Z,1006.8
2022-08-02T02:40:57.520Z,1006.81
2022-08-02T02:41:57.516Z,1006.76
2022-08-02T02:42:57.505Z,1006.72
2022-08-02T02:43:57.499Z,1006.72
2022-08-02T02:44:57.479Z,1006.72
2022-08-02T02:45:57.473Z,1006.75
2022-08-02T02:46:57.458Z,1006.72
2022-08-02T02:47:57.446Z,1006.69
2022-08-02T02:48:57.442Z,1006.65
2022-08-02T02:49:57.433Z,1006.69
2022-08-02T02:50:57.414Z,1006.68
2022-08-02T02:51:57.442Z,1006.64
2022-08-02T02:52:57.407Z,1006.65
2022-08-02T02:53:57.429Z,1006.6
2022-08-02T02:54:57.368Z,1006.64
2022-08-02T02:55:57.360Z,1006.66
2022-08-02T02:56:57.344Z,1006.6
2022-08-02T02:57:57.336Z,1006.61
2022-08-02T02:58:57.330Z,1006.61
2022-08-02T02:59:57.317Z,1006.63
2022-08-02T03:01:04.862Z,1006.63
2022-08-02T03:01:57.305Z,1006.66
2022-08-02T03:02:57.282Z,1006.57
2022-08-02T03:04:05.855Z,1006.55
2022-08-02T03:04:57.265Z,1006.68
2022-08-02T03:05:57.245Z,1006.59
2022-08-02T03:06:57.233Z,1006.57
2022-08-02T03:07:57.233Z,1006.67
2022-08-02T03:08:57.214Z,1006.67
2022-08-02T03:09:57.201Z,1006.68
2022-08-02T03:10:57.190Z,1006.72
2022-08-02T03:11:57.178Z,1006.72
2022-08-02T03:12:57.168Z,1006.7
2022-08-02T03:13:57.167Z,1006.7
2022-08-02T03:14:57.162Z,1006.69
2022-08-02T03:15:57.142Z,1006.68
2022-08-02T03:16:57.122Z,1006.71
2022-08-02T03:17:57.115Z,1006.7
2022-08-02T03:18:57.184Z,1006.67
2022-08-02T03:19:57.109Z,1006.71
2022-08-02T03:20:57.093Z,1006.64
2022-08-02T03:21:57.080Z,1006.65
2022-08-02T03:22:57.071Z,1006.64
2022-08-02T03:23:57.068Z,1006.7
2022-08-02T03:24:57.077Z,1006.66
2022-08-02T03:25:57.041Z,1006.63
2022-08-02T03:26:57.033Z,1006.67
2022-08-02T03:27:57.014Z,1006.63
2022-08-02T03:28:57.003Z,1006.66
2022-08-02T03:29:56.999Z,1006.76
2022-08-02T03:30:56.973Z,1006.66
2022-08-02T03:31:56.957Z,1006.67
2022-08-02T03:32:56.963Z,1006.65
2022-08-02T03:33:56.936Z,1006.63
2022-08-02T03:34:56.929Z,1006.68
2022-08-02T03:35:56.914Z,1006.69
2022-08-02T03:36:56.904Z,1006.62
2022-08-02T03:37:57.682Z,1006.67
2022-08-02T03:38:56.882Z,1006.64
2022-08-02T03:39:56.870Z,1006.66
2022-08-02T03:40:56.863Z,1006.66
2022-08-02T03:41:56.844Z,1006.64
2022-08-02T03:42:56.841Z,1006.65
2022-08-02T03:43:56.836Z,1006.62
2022-08-02T03:44:56.810Z,1006.67
2022-08-02T03:45:56.804Z,1006.62
2022-08-02T03:46:56.787Z,1006.76
2022-08-02T03:47:56.796Z,1006.76
2022-08-02T03:48:56.772Z,1006.76
2022-08-02T03:49:56.781Z,1006.72
2022-08-02T03:50:56.784Z,1006.74
2022-08-02T03:51:56.733Z,1006.74
2022-08-02T03:52:56.728Z,1006.76
2022-08-02T03:53:56.726Z,1006.75
2022-08-02T03:54:56.713Z,1006.73
2022-08-02T03:55:56.691Z,1006.74
2022-08-02T03:56:56.680Z,1006.74
2022-08-02T03:57:56.672Z,1006.75
2022-08-02T03:58:56.686Z,1006.75
2022-08-02T03:59:56.647Z,1006.78
2022-08-02T04:00:56.647Z,1006.75
2022-08-02T04:01:56.624Z,1006.71
2022-08-02T04:02:56.612Z,1006.74
2022-08-02T04:03:56.608Z,1006.82
2022-08-02T04:04:56.588Z,1006.74
2022-08-02T04:05:56.599Z,1006.7
2022-08-02T04:06:56.580Z,1006.69
2022-08-02T04:07:56.593Z,1006.58
2022-08-02T04:08:56.569Z,1006.59
2022-08-02T04:09:56.533Z,1006.56
2022-08-02T04:10:56.521Z,1006.61
2022-08-02T04:11:56.522Z,1006.57
2022-08-02T04:12:56.496Z,1006.61
2022-08-02T04:13:56.486Z,1006.65
2022-08-02T04:14:56.478Z,1006.67
2022-08-02T04:15:56.465Z,1006.66
2022-08-02T04:16:56.459Z,1006.67
2022-08-02T04:17:56.477Z,1006.62
2022-08-02T04:18:56.437Z,1006.64
2022-08-02T04:19:56.446Z,1006.69
2022-08-02T04:20:56.414Z,1006.69
2022-08-02T04:21:56.401Z,1006.64
2022-08-02T04:22:56.391Z,1006.65
2022-08-02T04:23:56.378Z,1006.68
2022-08-02T04:24:56.367Z,1006.68
2022-08-02T04:25:56.360Z,1006.68
2022-08-02T04:26:56.359Z,1006.72
2022-08-02T04:27:56.353Z,1006.71
2022-08-02T04:28:56.329Z,1006.78
2022-08-02T04:29:56.314Z,1006.84
2022-08-02T04:30:56.342Z,1006.83
2022-08-02T04:31:56.285Z,1006.88
2022-08-02T04:32:56.274Z,1006.9
2022-08-02T04:33:56.272Z,1006.84
2022-08-02T04:34:56.274Z,1006.84
2022-08-02T04:35:56.273Z,1006.85
2022-08-02T04:36:56.279Z,1006.88
2022-08-02T04:37:56.225Z,1006.86
2022-08-02T04:38:56.211Z,1006.9
2022-08-02T04:39:56.206Z,1006.84
2022-08-02T04:40:56.189Z,1006.84
2022-08-02T04:41:56.186Z,1006.82
2022-08-02T04:42:56.167Z,1006.82
2022-08-02T04:43:56.152Z,1006.84
2022-08-02T04:44:56.144Z,1006.83
2022-08-02T04:45:56.151Z,1006.85
2022-08-02T04:46:56.186Z,1006.8
2022-08-02T04:47:56.159Z,1006.8
2022-08-02T04:48:56.108Z,1006.83
2022-08-02T04:49:56.090Z,1006.84
2022-08-02T04:50:56.087Z,1006.83
2022-08-02T04:51:56.078Z,1006.88
2022-08-02T04:52:56.058Z,1006.85
2022-08-02T04:53:56.045Z,1006.86
2022-08-02T04:54:56.032Z,1006.86
2022-08-02T04:55:56.023Z,1006.84
2022-08-02T04:56:56.020Z,1006.8
2022-08-02T04:57:56.000Z,1006.84
2022-08-02T04:58:55.989Z,1006.87
2022-08-02T04:59:56.013Z,1006.78
2022-08-02T05:00:55.970Z,1006.8
2022-08-02T05:01:55.955Z,1006.79
2022-08-02T05:02:55.958Z,1006.82
2022-08-02T05:03:55.941Z,1006.83
2022-08-02T05:04:55.921Z,1006.81
2022-08-02T05:05:55.921Z,1006.73
2022-08-02T05:06:55.901Z,1006.78
2022-08-02T05:07:55.887Z,1006.76
2022-08-02T05:08:55.893Z,1006.79
2022-08-02T05:09:55.893Z,1006.82
2022-08-02T05:10:55.858Z,1006.89
2022-08-02T05:11:55.847Z,1006.85
2022-08-02T05:12:55.836Z,1006.91
2022-08-02T05:13:55.830Z,1006.9
2022-08-02T05:14:55.815Z,1006.88
2022-08-02T05:15:55.800Z,1006.93
2022-08-02T05:16:55.793Z,1006.95
2022-08-02T05:17:55.781Z,1006.95
2022-08-02T05:18:55.772Z,1006.84
2022-08-02T05:19:55.763Z,1006.89
2022-08-02T05:20:55.740Z,1006.92
2022-08-02T05:21:55.753Z,1006.92
2022-08-02T05:22:55.722Z,1006.93
2022-08-02T05:23:55.714Z,1006.98
2022-08-02T05:24:55.700Z,1006.89
2022-08-02T05:25:55.690Z,1006.89
2022-08-02T05:26:55.674Z,1006.92
2022-08-02T05:27:55.688Z,1006.95
2022-08-02T05:28:55.650Z,1006.94
2022-08-02T05:29:55.642Z,1006.91
2022-08-02T05:30:55.645Z,1006.97
2022-08-02T05:31:55.626Z,1006.92
2022-08-02T05:32:55.607Z,1006.94
2022-08-02T05:33:55.595Z,1006.9
2022-08-02T05:34:55.590Z,1006.88
2022-08-02T05:35:55.576Z,1006.83
2022-08-02T05:36:55.566Z,1006.89
2022-08-02T05:37:55.552Z,1006.89
2022-08-02T05:38:55.542Z,1006.87
2022-08-02T05:39:55.532Z,1006.86
2022-08-02T05:40:55.522Z,1006.87
2022-08-02T05:41:55.525Z,1006.94
2022-08-02T05:42:55.525Z,1006.93
2022-08-02T05:43:55.487Z,1006.89
2022-08-02T05:44:55.477Z,1006.87
2022-08-02T05:45:55.472Z,1006.87
2022-08-02T05:46:55.453Z,1006.89
2022-08-02T05:47:55.450Z,1006.87
2022-08-02T05:48:55.478Z,1006.89
2022-08-02T05:49:55.423Z,1006.87
2022-08-02T05:50:55.410Z,1006.86
2022-08-02T05:51:55.398Z,1006.83
2022-08-02T05:52:55.652Z,1006.83
2022-08-02T05:53:55.378Z,1006.85
2022-08-02T05:54:55.377Z,1006.83
2022-08-02T05:55:55.359Z,1006.93
2022-08-02T05:56:55.345Z,1006.93
2022-08-02T05:57:55.336Z,1006.95
2022-08-02T05:58:55.346Z,1006.93
2022-08-02T05:59:55.314Z,1006.91
2022-08-02T06:00:55.311Z,1006.99
2022-08-02T06:01:55.293Z,1006.98
2022-08-02T06:02:55.282Z,1006.98
2022-08-02T06:03:55.283Z,1006.97
2022-08-02T06:04:55.267Z,1006.98
2022-08-02T06:05:55.248Z,1006.95
2022-08-02T06:06:55.239Z,1006.99
2022-08-02T06:07:55.228Z,1006.99
2022-08-02T06:08:55.236Z,1006.99
2022-08-02T06:09:55.209Z,1006.95
2022-08-02T06:10:55.198Z,1006.95
2022-08-02T06:11:55.198Z,1006.95
2022-08-02T06:12:55.175Z,1006.95
2022-08-02T06:13:55.167Z,1007
2022-08-02T06:14:55.162Z,1006.99
2022-08-02T06:15:55.152Z,1006.93
2022-08-02T06:16:55.141Z,1006.97
2022-08-02T06:17:55.125Z,1006.96
2022-08-02T06:18:55.122Z,1007.03
2022-08-02T06:19:55.116Z,1006.98
2022-08-02T06:20:55.106Z,1006.99
2022-08-02T06:21:55.108Z,1006.98
2022-08-02T06:22:55.068Z,1007
2022-08-02T06:23:55.057Z,1007.02
2022-08-02T06:24:55.047Z,1006.99
2022-08-02T06:25:55.046Z,1007.02
2022-08-02T06:26:55.042Z,1006.98
2022-08-02T06:27:55.041Z,1006.99
2022-08-02T06:28:55.008Z,1007
2022-08-02T06:29:54.995Z,1007.06
2022-08-02T06:30:54.989Z,1007.07
2022-08-02T06:31:54.975Z,1007.08
2022-08-02T06:32:54.966Z,1007.11
2022-08-02T06:33:54.965Z,1007.09
2022-08-02T06:34:54.942Z,1007.11
2022-08-02T06:35:54.929Z,1007.14
2022-08-02T06:36:54.923Z,1007.14
2022-08-02T06:37:54.909Z,1007.18
2022-08-02T06:38:54.925Z,1007.16
2022-08-02T06:39:54.921Z,1007.14
2022-08-02T06:40:54.873Z,1007.06
2022-08-02T06:41:54.886Z,1007.16
2022-08-02T06:42:54.882Z,1007.1
2022-08-02T06:43:54.853Z,1007.1
2022-08-02T06:44:55.015Z,1007.07
2022-08-02T06:45:54.824Z,1007.08
2022-08-02T06:46:54.813Z,1006.97
2022-08-02T06:47:54.802Z,1006.94
2022-08-02T06:48:54.789Z,1006.97
2022-08-02T06:49:54.781Z,1006.97
2022-08-02T06:50:54.776Z,1006.98
2022-08-02T06:51:54.755Z,1006.96
2022-08-02T06:52:54.748Z,1006.91
2022-08-02T06:53:54.733Z,1006.9
2022-08-02T06:54:54.727Z,1006.91
2022-08-02T06:55:54.731Z,1006.88
2022-08-02T06:56:54.729Z,1006.88
2022-08-02T06:57:54.698Z,1006.87
2022-08-02T06:58:54.676Z,1006.89
2022-08-02T06:59:54.692Z,1006.68
2022-08-02T07:00:54.673Z,1006.76
2022-08-02T07:01:54.646Z,1006.7
2022-08-02T07:02:54.645Z,1006.66
2022-08-02T07:03:54.624Z,1006.61
2022-08-02T07:04:54.621Z,1006.64
2022-08-02T07:05:54.612Z,1006.63
2022-08-02T07:06:54.597Z,1006.7
2022-08-02T07:07:54.593Z,1006.66
2022-08-02T07:08:54.587Z,1006.73
2022-08-02T07:09:54.565Z,1006.75
2022-08-02T07:10:54.568Z,1006.77
2022-08-02T07:11:54.541Z,1006.69
2022-08-02T07:12:54.533Z,1006.73
2022-08-02T07:13:54.525Z,1006.7
2022-08-02T07:14:54.509Z,1006.73
2022-08-02T07:15:54.498Z,1006.74
2022-08-02T07:16:54.494Z,1006.74
2022-08-02T07:17:54.477Z,1006.64
2022-08-02T07:18:54.480Z,1006.6
2022-08-02T07:19:54.450Z,1006.65
2022-08-02T07:20:54.442Z,1006.66
2022-08-02T07:21:54.432Z,1006.64
2022-08-02T07:22:54.431Z,1006.64
2022-08-02T07:23:54.491Z,1006.64
2022-08-02T07:24:54.398Z,1006.58
2022-08-02T07:25:54.387Z,1006.56
2022-08-02T07:26:54.377Z,1006.56
2022-08-02T07:27:54.372Z,1006.52
2022-08-02T07:28:54.358Z,1006.48
2022-08-02T07:29:54.349Z,1006.52
2022-08-02T07:30:54.339Z,1006.47
2022-08-02T07:31:54.325Z,1006.44
2022-08-02T07:32:54.318Z,1006.53
2022-08-02T07:33:54.334Z,1006.57
2022-08-02T07:34:54.293Z,1006.59
2022-08-02T07:35:54.283Z,1006.65
2022-08-02T07:36:54.276Z,1006.63
2022-08-02T07:37:54.261Z,1006.68
2022-08-02T07:38:54.255Z,1006.68
2022-08-02T07:39:54.242Z,1006.72
2022-08-02T07:40:54.257Z,1006.67
2022-08-02T07:41:54.213Z,1006.66
2022-08-02T07:42:54.214Z,1006.7
2022-08-02T07:43:54.196Z,1006.79
2022-08-02T07:44:54.218Z,1006.71
2022-08-02T07:45:54.179Z,1006.75
2022-08-02T07:46:54.222Z,1006.74
2022-08-02T07:47:54.152Z,1006.68
2022-08-02T07:48:54.189Z,1006.66
2022-08-02T07:49:54.135Z,1006.69
2022-08-02T07:50:54.121Z,1006.71
2022-08-02T07:51:54.124Z,1006.75
2022-08-02T07:52:54.096Z,1006.63
2022-08-02T07:53:54.093Z,1006.63
2022-08-02T07:54:54.092Z,1006.56
2022-08-02T07:55:54.088Z,1006.56
2022-08-02T07:56:54.060Z,1006.54
2022-08-02T07:57:54.083Z,1006.59
2022-08-02T07:58:54.036Z,1006.54
2022-08-02T07:59:54.028Z,1006.52
2022-08-02T08:00:54.053Z,1006.53
2022-08-02T08:01:54.018Z,1006.44
2022-08-02T08:02:53.991Z,1006.45
2022-08-02T08:03:53.984Z,1006.44
2022-08-02T08:04:53.974Z,1006.47
2022-08-02T08:05:53.968Z,1006.49
2022-08-02T08:06:53.972Z,1006.5
2022-08-02T08:07:53.936Z,1006.43
2022-08-02T08:08:53.928Z,1006.34
2022-08-02T08:09:53.929Z,1006.37
2022-08-02T08:10:53.906Z,1006.38
2022-08-02T08:11:53.908Z,1006.39
2022-08-02T08:12:53.886Z,1006.47
2022-08-02T08:13:53.870Z,1006.43
2022-08-02T08:14:53.864Z,1006.38
2022-08-02T08:15:53.849Z,1006.38
2022-08-02T08:16:53.865Z,1006.38
2022-08-02T08:17:53.892Z,1006.4
2022-08-02T08:18:53.822Z,1006.45
2022-08-02T08:19:53.810Z,1006.47
2022-08-02T08:20:53.800Z,1006.47
2022-08-02T08:21:53.785Z,1006.37
2022-08-02T08:22:53.780Z,1006.35
2022-08-02T08:23:53.767Z,1006.39
2022-08-02T08:24:53.758Z,1006.36
2022-08-02T08:25:53.786Z,1006.37
2022-08-02T08:26:53.739Z,1006.33
2022-08-02T08:27:53.732Z,1006.37
2022-08-02T08:28:53.709Z,1006.38
2022-08-02T08:29:53.699Z,1006.36
2022-08-02T08:30:53.689Z,1006.35
2022-08-02T08:31:53.727Z,1006.36
2022-08-02T08:32:53.675Z,1006.33
2022-08-02T08:33:53.655Z,1006.23
2022-08-02T08:34:53.654Z,1006.31
2022-08-02T08:35:53.660Z,1006.3
2022-08-02T08:36:53.632Z,1006.26
2022-08-02T08:37:53.611Z,1006.32
2022-08-02T08:38:53.619Z,1006.29
2022-08-02T08:39:53.599Z,1006.26
2022-08-02T08:40:53.597Z,1006.24
2022-08-02T08:41:53.569Z,1006.21
2022-08-02T08:42:53.565Z,1006.26
2022-08-02T08:43:53.548Z,1006.24
2022-08-02T08:44:53.537Z,1006.24
2022-08-02T08:45:53.534Z,1006.19
2022-08-02T08:46:53.542Z,1006.25
2022-08-02T08:47:53.523Z,1006.19
2022-08-02T08:48:53.525Z,1006.2
2022-08-02T08:49:53.487Z,1006.21
2022-08-02T08:50:53.482Z,1006.14
2022-08-02T08:51:53.467Z,1006.18
2022-08-02T08:52:53.559Z,1006.19
2022-08-02T08:53:53.462Z,1006.23
2022-08-02T08:54:53.437Z,1006.23
2022-08-02T08:55:53.445Z,1006.22
2022-08-02T08:56:53.437Z,1006.21
2022-08-02T08:57:53.441Z,1006.28
2022-08-02T08:58:53.389Z,1006.22
2022-08-02T08:59:53.392Z,1006.31
2022-08-02T09:00:53.371Z,1006.29
2022-08-02T09:01:53.356Z,1006.22
2022-08-02T09:02:53.361Z,1006.21
2022-08-02T09:03:53.333Z,1006.27
2022-08-02T09:04:53.364Z,1006.15
2022-08-02T09:05:53.326Z,1006.21
2022-08-02T09:06:53.314Z,1006.13
2022-08-02T09:07:53.303Z,1006.12
2022-08-02T09:08:53.292Z,1006.16
2022-08-02T09:09:53.290Z,1006.13
2022-08-02T09:10:53.280Z,1006.16
2022-08-02T09:11:53.250Z,1006.1
2022-08-02T09:12:53.252Z,1006.15
2022-08-02T09:13:53.247Z,1006.15
2022-08-02T09:14:53.222Z,1006.14
2022-08-02T09:15:53.219Z,1006.17
2022-08-02T09:16:53.227Z,1006.19
2022-08-02T09:17:53.186Z,1006.24
2022-08-02T09:18:53.181Z,1006.26
2022-08-02T09:19:53.164Z,1006.24
2022-08-02T09:20:53.148Z,1006.21
2022-08-02T09:21:53.138Z,1006.22
2022-08-02T09:22:53.131Z,1006.22
2022-08-02T09:23:53.120Z,1006.25
2022-08-02T09:24:53.110Z,1006.28
2022-08-02T09:25:53.115Z,1006.22
2022-08-02T09:26:53.086Z,1006.34
2022-08-02T09:27:53.074Z,1006.28
2022-08-02T09:28:53.078Z,1006.24
2022-08-02T09:29:53.053Z,1006.24
2022-08-02T09:30:53.054Z,1006.17
2022-08-02T09:31:53.046Z,1006.24
2022-08-02T09:32:53.049Z,1006.26
2022-08-02T09:33:53.010Z,1006.25
2022-08-02T09:34:53.002Z,1006.16
2022-08-02T09:35:52.999Z,1006.18
2022-08-02T09:36:52.988Z,1006.17
2022-08-02T09:37:52.975Z,1006.15
2022-08-02T09:38:52.982Z,1006.26
2022-08-02T09:39:52.953Z,1006.24
2022-08-02T09:40:52.938Z,1006.24
2022-08-02T09:41:52.930Z,1006.25
2022-08-02T09:42:52.939Z,1006.2
2022-08-02T09:43:52.924Z,1006.22
2022-08-02T09:44:52.903Z,1006.22
2022-08-02T09:45:52.890Z,1006.16
2022-08-02T09:46:52.876Z,1006.22
2022-08-02T09:47:52.887Z,1006.11
2022-08-02T09:48:52.894Z,1006.1
2022-08-02T09:49:52.843Z,1006.18
2022-08-02T09:50:52.865Z,1006.14
2022-08-02T09:51:52.823Z,1006.19
2022-08-02T09:52:52.814Z,1006.07
2022-08-02T09:53:52.811Z,1006.15
2022-08-02T09:54:52.795Z,1006.19
2022-08-02T09:55:52.785Z,1006.02
2022-08-02T09:56:52.770Z,1006.05
2022-08-02T09:57:52.760Z,1006.02
2022-08-02T09:58:52.751Z,1006.05
2022-08-02T09:59:52.738Z,1006.09
2022-08-02T10:00:52.734Z,1006.07
2022-08-02T10:01:52.746Z,1006.04
2022-08-02T10:02:52.758Z,1006.06
2022-08-02T10:03:52.709Z,1006.03
2022-08-02T10:04:52.695Z,1006.05
2022-08-02T10:05:52.699Z,1005.98
2022-08-02T10:06:52.665Z,1006.06
2022-08-02T10:07:52.666Z,1006.06
2022-08-02T10:08:52.643Z,1006.02
2022-08-02T10:09:52.652Z,1006.05
2022-08-02T10:10:52.635Z,1006.05
2022-08-02T10:11:52.609Z,1006.04
2022-08-02T10:12:52.608Z,1006.06
2022-08-02T10:13:52.592Z,1006.03
2022-08-02T10:14:52.593Z,1006.08
2022-08-02T10:15:52.578Z,1006.06
2022-08-02T10:16:52.573Z,1006.05
2022-08-02T10:17:52.556Z,1006.04
2022-08-02T10:18:52.551Z,1006
2022-08-02T10:19:52.542Z,1006.05
2022-08-02T10:20:52.518Z,1005.99
2022-08-02T10:21:52.515Z,1006.09
2022-08-02T10:22:52.515Z,1006.04
2022-08-02T10:23:52.499Z,1006.09
2022-08-02T10:24:52.502Z,1006.02
2022-08-02T10:25:52.465Z,1006.05
2022-08-02T10:26:52.460Z,1006.08
2022-08-02T10:27:52.447Z,1006
2022-08-02T10:28:52.444Z,1006.01
2022-08-02T10:29:52.432Z,1005.98
2022-08-02T10:30:52.412Z,1005.96
2022-08-02T10:31:52.405Z,1005.92
2022-08-02T10:32:52.411Z,1005.95
2022-08-02T10:33:52.392Z,1005.89
2022-08-02T10:34:52.368Z,1005.96
2022-08-02T10:35:52.365Z,1005.86
2022-08-02T10:36:52.356Z,1005.9
2022-08-02T10:37:52.340Z,1005.97
2022-08-02T10:38:52.337Z,1005.9
2022-08-02T10:39:52.343Z,1005.87
2022-08-02T10:40:52.310Z,1005.85
2022-08-02T10:41:52.302Z,1005.9
2022-08-02T10:42:52.286Z,1005.85
2022-08-02T10:43:52.326Z,1005.96
2022-08-02T10:44:52.291Z,1005.92
2022-08-02T10:45:52.261Z,1005.94
2022-08-02T10:46:52.262Z,1005.91
2022-08-02T10:47:52.248Z,1005.93
2022-08-02T10:48:52.227Z,1005.89
2022-08-02T10:49:52.229Z,1005.91
2022-08-02T10:50:52.212Z,1005.91
2022-08-02T10:51:52.192Z,1005.89
2022-08-02T10:52:52.186Z,1005.91
2022-08-02T10:53:52.181Z,1005.93
2022-08-02T10:54:52.171Z,1005.89
2022-08-02T10:55:52.155Z,1005.84
2022-08-02T10:56:52.143Z,1005.88
2022-08-02T10:57:52.158Z,1005.88
2022-08-02T10:58:52.132Z,1005.82
2022-08-02T10:59:52.125Z,1005.79
2022-08-02T11:00:52.125Z,1005.84
2022-08-02T11:01:52.096Z,1005.82
2022-08-02T11:02:52.080Z,1005.87
2022-08-02T11:03:52.073Z,1005.86
2022-08-02T11:04:52.053Z,1005.88
2022-08-02T11:05:52.049Z,1005.78
2022-08-02T11:06:52.048Z,1005.81
2022-08-02T11:07:52.029Z,1005.93
2022-08-02T11:08:52.013Z,1005.92
2022-08-02T11:09:52.014Z,1005.87
2022-08-02T11:10:52.010Z,1005.9
2022-08-02T11:11:51.984Z,1005.8
2022-08-02T11:12:51.973Z,1005.86
2022-08-02T11:13:51.970Z,1005.82
2022-08-02T11:14:51.982Z,1005.83
2022-08-02T11:15:51.942Z,1005.91
2022-08-02T11:16:51.938Z,1005.84
2022-08-02T11:17:52.000Z,1005.81
2022-08-02T11:18:51.912Z,1005.82
2022-08-02T11:19:51.899Z,1005.79
2022-08-02T11:20:51.894Z,1005.8
2022-08-02T11:21:51.877Z,1005.81
2022-08-02T11:22:51.880Z,1005.86
2022-08-02T11:23:51.865Z,1005.81
2022-08-02T11:24:51.867Z,1005.86
2022-08-02T11:25:51.860Z,1005.84
2022-08-02T11:26:51.835Z,1005.82
2022-08-02T11:27:51.834Z,1005.83
2022-08-02T11:28:51.817Z,1005.88
2022-08-02T11:29:51.796Z,1005.87
2022-08-02T11:30:51.793Z,1005.82
2022-08-02T11:31:51.778Z,1005.75
2022-08-02T11:32:51.763Z,1005.79
2022-08-02T11:33:51.778Z,1005.75
2022-08-02T11:34:51.756Z,1005.77
2022-08-02T11:35:51.741Z,1005.73
2022-08-02T11:36:51.783Z,1005.66
2022-08-02T11:37:51.720Z,1005.81
2022-08-02T11:38:51.712Z,1005.66
2022-08-02T11:39:51.700Z,1005.69
2022-08-02T11:40:51.696Z,1005.64
2022-08-02T11:41:51.676Z,1005.68
2022-08-02T11:42:51.664Z,1005.6
2022-08-02T11:43:51.649Z,1005.72
2022-08-02T11:44:51.658Z,1005.72
2022-08-02T11:45:51.638Z,1005.59
2022-08-02T11:46:51.647Z,1005.63
2022-08-02T11:47:51.614Z,1005.65
2022-08-02T11:48:51.614Z,1005.65
2022-08-02T11:49:51.634Z,1005.69
2022-08-02T11:50:52.196Z,1005.6
2022-08-02T11:51:51.573Z,1005.66
2022-08-02T11:52:51.563Z,1005.66
2022-08-02T11:53:51.550Z,1005.68
2022-08-02T11:54:51.543Z,1005.63
2022-08-02T11:55:51.530Z,1005.53
2022-08-02T11:56:51.523Z,1005.6
2022-08-02T11:57:51.519Z,1005.59
2022-08-02T11:58:51.504Z,1005.64
2022-08-02T11:59:51.499Z,1005.65
2022-08-02T12:00:51.481Z,1005.58
2022-08-02T12:01:51.468Z,1005.5
2022-08-02T12:02:51.465Z,1005.64
2022-08-02T12:03:51.472Z,1005.56
2022-08-02T12:04:51.431Z,1005.53
2022-08-02T12:05:51.437Z,1005.49
2022-08-02T12:06:51.418Z,1005.59
2022-08-02T12:07:51.411Z,1005.55